sensor_id;sensor_type;location;lat;lon;timestamp;pressure;altitude;pressure_sealevel;temperature;humidity
58937;BME280;44718;52.346;4.970;2023-02-28T13:46:12;61190.75;;;-146.50;100.00
58937;BME280;44718;52.346;4.970;2023-02-28T13:48:38;61236.13;;;-146.50;100.00
58937;BME280;44718;52.346;4.970;2023-02-28T13:51:46;61250.56;;;-146.50;100.00
58937;BME280;44718;52.346;4.970;2023-02-28T13:54:26;61238.19;;;-146.50;100.00
58937;BME280;44718;52.346;4.970;2023-02-28T13:57:22;61196.94;;;-146.50;100.00
58937;BME280;44718;52.346;4.970;2023-02-28T14:07:33;61217.56;;;-146.50;100.00
58937;BME280;44718;52.346;4.970;2023-02-28T14:10:06;61205.19;;;-146.50;100.00
58937;BME280;44718;52.346;4.970;2023-02-28T14:12:57;61159.78;;;-146.50;100.00
58937;BME280;44718;52.346;4.970;2023-02-28T14:17:57;61190.75;;;-146.50;100.00
58937;BME280;44718;52.346;4.970;2023-02-28T14:20:27;61196.94;;;-146.50;100.00
58937;BME280;44718;52.346;4.970;2023-02-28T14:23:13;61172.16;;;-146.50;100.00
58937;BME280;44718;52.346;4.970;2023-02-28T14:29:27;61161.84;;;-146.50;100.00
58937;BME280;44718;52.346;4.970;2023-02-28T14:32:02;61217.56;;;-146.50;100.00
58937;BME280;44718;52.346;4.970;2023-02-28T14:34:35;61184.53;;;-146.50;100.00
58937;BME280;44718;52.346;4.970;2023-02-28T14:37:04;61192.81;;;-146.50;100.00
58937;BME280;44718;52.346;4.970;2023-02-28T14:39:30;61184.53;;;-146.50;100.00
58937;BME280;44718;52.346;4.970;2023-02-28T14:41:56;61172.16;;;-146.50;100.00
58937;BME280;44718;52.346;4.970;2023-02-28T14:44:26;61248.50;;;-146.50;100.00
58937;BME280;44718;52.346;4.970;2023-02-28T14:46:54;61190.75;;;-146.50;100.00
58937;BME280;44718;52.346;4.970;2023-02-28T14:51:45;61178.34;;;-146.50;100.00
58937;BME280;44718;52.346;4.970;2023-02-28T14:54:15;61165.97;;;-146.50;100.00
58937;BME280;44718;52.346;4.970;2023-02-28T14:56:41;61178.34;;;-146.50;100.00
58937;BME280;44718;52.346;4.970;2023-02-28T14:59:21;61151.53;;;-146.50;100.00
58937;BME280;44718;52.346;4.970;2023-02-28T15:01:48;61168.03;;;-146.50;100.00
58937;BME280;44718;52.346;4.970;2023-02-28T15:04:18;61213.44;;;-146.50;100.00
58937;BME280;44718;52.346;4.970;2023-02-28T15:06:46;61089.66;;;-146.50;100.00
58937;BME280;44718;52.346;4.970;2023-02-28T15:09:16;61180.41;;;-146.50;100.00
58937;BME280;44718;52.346;4.970;2023-02-28T15:11:46;61240.25;;;-146.50;100.00
58937;BME280;44718;52.346;4.970;2023-02-28T15:14:19;61205.19;;;-146.50;100.00
58937;BME280;44718;52.346;4.970;2023-02-28T15:16:48;61194.88;;;-146.50;100.00
58937;BME280;44718;52.346;4.970;2023-02-28T15:19:27;61161.84;;;-146.50;100.00
58937;BME280;44718;52.346;4.970;2023-02-28T15:22:12;61205.19;;;-146.50;100.00
58937;BME280;44718;52.346;4.970;2023-02-28T15:24:48;61178.34;;;-146.50;100.00
58937;BME280;44718;52.346;4.970;2023-02-28T15:27:20;61186.59;;;-146.50;100.00
58937;BME280;44718;52.346;4.970;2023-02-28T15:29:54;61151.53;;;-146.50;100.00
58937;BME280;44718;52.346;4.970;2023-02-28T15:32:28;61147.41;;;-146.50;100.00
58937;BME280;44718;52.346;4.970;2023-02-28T15:34:54;61153.59;;;-146.50;100.00
58937;BME280;44718;52.346;4.970;2023-02-28T15:42:35;61163.91;;;-146.50;100.00
58937;BME280;44718;52.346;4.970;2023-02-28T15:45:00;61151.53;;;-146.50;100.00
58937;BME280;44718;52.346;4.970;2023-02-28T15:47:27;61192.81;;;-146.50;100.00
58937;BME280;44718;52.346;4.970;2023-02-28T15:50:00;61145.34;;;-146.50;100.00
58937;BME280;44718;52.346;4.970;2023-02-28T15:52:38;61163.91;;;-146.50;100.00
58937;BME280;44718;52.346;4.970;2023-02-28T15:55:21;61118.53;;;-146.50;100.00
58937;BME280;44718;52.346;4.970;2023-02-28T15:57:50;61155.66;;;-146.50;100.00
58937;BME280;44718;52.346;4.970;2023-02-28T16:00:20;61155.66;;;-146.50;100.00
58937;BME280;44718;52.346;4.970;2023-02-28T16:02:47;61170.09;;;-146.50;100.00
58937;BME280;44718;52.346;4.970;2023-02-28T16:07:53;61135.03;;;-146.50;100.00
58937;BME280;44718;52.346;4.970;2023-02-28T16:10:19;61180.41;;;-146.50;100.00
58937;BME280;44718;52.346;4.970;2023-02-28T16:12:44;61178.34;;;-146.50;100.00
58937;BME280;44718;52.346;4.970;2023-02-28T16:15:28;61186.59;;;-146.50;100.00
58937;BME280;44718;52.346;4.970;2023-02-28T16:17:55;61147.41;;;-146.50;100.00
58937;BME280;44718;52.346;4.970;2023-02-28T16:20:26;61174.22;;;-146.50;100.00
58937;BME280;44718;52.346;4.970;2023-02-28T16:22:52;61194.88;;;-146.50;100.00
58937;BME280;44718;52.346;4.970;2023-02-28T16:25:20;61157.72;;;-146.50;100.00
58937;BME280;44718;52.346;4.970;2023-02-28T16:27:50;61137.09;;;-146.50;100.00
58937;BME280;44718;52.346;4.970;2023-02-28T16:30:24;61145.34;;;-146.50;100.00
58937;BME280;44718;52.346;4.970;2023-02-28T16:32:52;61145.34;;;-146.50;100.00
58937;BME280;44718;52.346;4.970;2023-02-28T16:35:19;61151.53;;;-146.50;100.00
58937;BME280;44718;52.346;4.970;2023-02-28T16:37:44;61130.91;;;-146.50;100.00
58937;BME280;44718;52.346;4.970;2023-02-28T16:40:14;61147.41;;;-146.50;100.00
58937;BME280;44718;52.346;4.970;2023-02-28T16:42:40;61126.78;;;-146.50;100.00
58937;BME280;44718;52.346;4.970;2023-02-28T16:45:05;61149.47;;;-146.50;100.00
58937;BME280;44718;52.346;4.970;2023-02-28T16:47:31;61170.09;;;-146.50;100.00
58937;BME280;44718;52.346;4.970;2023-02-28T16:49:57;61157.72;;;-146.50;100.00
58937;BME280;44718;52.346;4.970;2023-02-28T16:52:23;61151.53;;;-146.50;100.00
58937;BME280;44718;52.346;4.970;2023-02-28T16:54:48;61161.84;;;-146.50;100.00
58937;BME280;44718;52.346;4.970;2023-02-28T16:57:22;61172.16;;;-146.50;100.00
58937;BME280;44718;52.346;4.970;2023-02-28T16:59:49;61163.91;;;-146.50;100.00
58937;BME280;44718;52.346;4.970;2023-02-28T17:02:17;61163.91;;;-146.50;100.00
58937;BME280;44718;52.346;4.970;2023-02-28T17:04:44;61170.09;;;-146.50;100.00
58937;BME280;44718;52.346;4.970;2023-02-28T17:07:13;61199.00;;;-146.50;100.00
58937;BME280;44718;52.346;4.970;2023-02-28T17:09:39;61192.81;;;-146.50;100.00
58937;BME280;44718;52.346;4.970;2023-02-28T17:12:06;61213.44;;;-146.50;100.00
58937;BME280;44718;52.346;4.970;2023-02-28T17:14:31;61168.03;;;-146.50;100.00
58937;BME280;44718;52.346;4.970;2023-02-28T17:16:57;61170.09;;;-146.50;100.00
58937;BME280;44718;52.346;4.970;2023-02-28T17:19:22;61182.47;;;-146.50;100.00
58937;BME280;44718;52.346;4.970;2023-02-28T17:21:47;61165.97;;;-146.50;100.00
58937;BME280;44718;52.346;4.970;2023-02-28T17:24:13;61176.28;;;-146.50;100.00
58937;BME280;44718;52.346;4.970;2023-02-28T17:26:41;61178.34;;;-146.50;100.00
58937;BME280;44718;52.346;4.970;2023-02-28T17:29:19;61172.16;;;-146.50;100.00
58937;BME280;44718;52.346;4.970;2023-02-28T17:31:45;61176.28;;;-146.50;100.00
58937;BME280;44718;52.346;4.970;2023-02-28T17:34:10;61176.28;;;-146.50;100.00
58937;BME280;44718;52.346;4.970;2023-02-28T17:36:36;61184.53;;;-146.50;100.00
58937;BME280;44718;52.346;4.970;2023-02-28T17:39:03;61176.28;;;-146.50;100.00
58937;BME280;44718;52.346;4.970;2023-02-28T17:41:29;61155.66;;;-146.50;100.00
58937;BME280;44718;52.346;4.970;2023-02-28T17:43:56;61165.97;;;-146.50;100.00
58937;BME280;44718;52.346;4.970;2023-02-28T17:46:22;61190.75;;;-146.50;100.00
58937;BME280;44718;52.346;4.970;2023-02-28T17:48:52;61213.44;;;-146.50;100.00
58937;BME280;44718;52.346;4.970;2023-02-28T17:51:22;61176.28;;;-146.50;100.00
58937;BME280;44718;52.346;4.970;2023-02-28T17:53:47;61219.63;;;-146.50;100.00
58937;BME280;44718;52.346;4.970;2023-02-28T17:56:25;61201.06;;;-146.50;100.00
58937;BME280;44718;52.346;4.970;2023-02-28T17:58:51;61244.38;;;-146.50;100.00
58937;BME280;44718;52.346;4.970;2023-02-28T18:01:17;61209.31;;;-146.50;100.00
58937;BME280;44718;52.346;4.970;2023-02-28T18:03:42;61211.38;;;-146.50;100.00
58937;BME280;44718;52.346;4.970;2023-02-28T18:06:14;61201.06;;;-146.50;100.00
58937;BME280;44718;52.346;4.970;2023-02-28T18:08:40;61213.44;;;-146.50;100.00
58937;BME280;44718;52.346;4.970;2023-02-28T18:11:06;61163.91;;;-146.50;100.00
58937;BME280;44718;52.346;4.970;2023-02-28T18:13:31;61221.69;;;-146.50;100.00
58937;BME280;44718;52.346;4.970;2023-02-28T18:15:58;61215.50;;;-146.50;100.00
58937;BME280;44718;52.346;4.970;2023-02-28T18:18:23;61205.19;;;-146.50;100.00
58937;BME280;44718;52.346;4.970;2023-02-28T18:20:52;61194.88;;;-146.50;100.00
58937;BME280;44718;52.346;4.970;2023-02-28T18:23:18;61178.34;;;-146.50;100.00
58937;BME280;44718;52.346;4.970;2023-02-28T18:25:45;61168.03;;;-146.50;100.00
58937;BME280;44718;52.346;4.970;2023-02-28T18:28:10;61188.69;;;-146.50;100.00
58937;BME280;44718;52.346;4.970;2023-02-28T18:30:36;61172.16;;;-146.50;100.00
58937;BME280;44718;52.346;4.970;2023-02-28T18:33:02;61205.19;;;-146.50;100.00
58937;BME280;44718;52.346;4.970;2023-02-28T18:35:29;61188.69;;;-146.50;100.00
58937;BME280;44718;52.346;4.970;2023-02-28T18:38:23;61159.78;;;-146.50;100.00
58937;BME280;44718;52.346;4.970;2023-02-28T18:40:57;61182.47;;;-146.50;100.00
58937;BME280;44718;52.346;4.970;2023-02-28T18:43:28;61194.88;;;-146.50;100.00
58937;BME280;44718;52.346;4.970;2023-02-28T18:45:54;61172.16;;;-146.50;100.00
58937;BME280;44718;52.346;4.970;2023-02-28T18:48:19;61184.53;;;-146.50;100.00
58937;BME280;44718;52.346;4.970;2023-02-28T18:50:47;61176.28;;;-146.50;100.00
58937;BME280;44718;52.346;4.970;2023-02-28T18:53:12;61186.59;;;-146.50;100.00
58937;BME280;44718;52.346;4.970;2023-02-28T18:55:38;61188.69;;;-146.50;100.00
58937;BME280;44718;52.346;4.970;2023-02-28T18:58:03;61174.22;;;-146.50;100.00
58937;BME280;44718;52.346;4.970;2023-02-28T19:00:29;61213.44;;;-146.50;100.00
58937;BME280;44718;52.346;4.970;2023-02-28T19:02:54;61182.47;;;-146.50;100.00
58937;BME280;44718;52.346;4.970;2023-02-28T19:05:19;61217.56;;;-146.50;100.00
58937;BME280;44718;52.346;4.970;2023-02-28T19:07:45;61201.06;;;-146.50;100.00
58937;BME280;44718;52.346;4.970;2023-02-28T19:10:11;61219.63;;;-146.50;100.00
58937;BME280;44718;52.346;4.970;2023-02-28T19:12:38;61213.44;;;-146.50;100.00
58937;BME280;44718;52.346;4.970;2023-02-28T19:15:05;61207.25;;;-146.50;100.00
58937;BME280;44718;52.346;4.970;2023-02-28T19:17:31;61219.63;;;-146.50;100.00
58937;BME280;44718;52.346;4.970;2023-02-28T19:19:57;61223.75;;;-146.50;100.00
58937;BME280;44718;52.346;4.970;2023-02-28T19:22:22;61246.44;;;-146.50;100.00
58937;BME280;44718;52.346;4.970;2023-02-28T19:24:49;61225.81;;;-146.50;100.00
58937;BME280;44718;52.346;4.970;2023-02-28T19:27:15;61211.38;;;-146.50;100.00
58937;BME280;44718;52.346;4.970;2023-02-28T19:29:52;61211.38;;;-146.50;100.00
58937;BME280;44718;52.346;4.970;2023-02-28T19:32:19;61194.88;;;-146.50;100.00
58937;BME280;44718;52.346;4.970;2023-02-28T19:34:45;61209.31;;;-146.50;100.00
58937;BME280;44718;52.346;4.970;2023-02-28T19:37:12;61229.94;;;-146.50;100.00
58937;BME280;44718;52.346;4.970;2023-02-28T19:39:37;61213.44;;;-146.50;100.00
58937;BME280;44718;52.346;4.970;2023-02-28T19:42:14;61213.44;;;-146.50;100.00
58937;BME280;44718;52.346;4.970;2023-02-28T19:44:40;61258.81;;;-146.50;100.00
58937;BME280;44718;52.346;4.970;2023-02-28T19:47:07;61234.06;;;-146.50;100.00
58937;BME280;44718;52.346;4.970;2023-02-28T19:49:32;61254.69;;;-146.50;100.00
58937;BME280;44718;52.346;4.970;2023-02-28T19:51:57;61260.88;;;-146.50;100.00
58937;BME280;44718;52.346;4.970;2023-02-28T19:54:23;61234.06;;;-146.50;100.00
58937;BME280;44718;52.346;4.970;2023-02-28T19:56:49;61289.75;;;-146.50;100.00
58937;BME280;44718;52.346;4.970;2023-02-28T19:59:14;61260.88;;;-146.50;100.00
58937;BME280;44718;52.346;4.970;2023-02-28T20:01:39;61283.56;;;-146.50;100.00
58937;BME280;44718;52.346;4.970;2023-02-28T20:04:05;61287.69;;;-146.50;100.00
58937;BME280;44718;52.346;4.970;2023-02-28T20:06:31;61252.63;;;-146.50;100.00
58937;BME280;44718;52.346;4.970;2023-02-28T20:08:57;61234.06;;;-146.50;100.00
58937;BME280;44718;52.346;4.970;2023-02-28T20:11:22;61277.38;;;-146.50;100.00
58937;BME280;44718;52.346;4.970;2023-02-28T20:13:53;61213.44;;;-146.50;100.00
58937;BME280;44718;52.346;4.970;2023-02-28T20:16:21;61246.44;;;-146.50;100.00
58937;BME280;44718;52.346;4.970;2023-02-28T20:18:48;61275.31;;;-146.50;100.00
58937;BME280;44718;52.346;4.970;2023-02-28T20:21:16;61262.94;;;-146.50;100.00
58937;BME280;44718;52.346;4.970;2023-02-28T20:23:42;61283.56;;;-146.50;100.00
58937;BME280;44718;52.346;4.970;2023-02-28T20:26:08;61285.63;;;-146.50;100.00
58937;BME280;44718;52.346;4.970;2023-02-28T20:28:34;61248.50;;;-146.50;100.00
58937;BME280;44718;52.346;4.970;2023-02-28T20:30:59;61289.75;;;-146.50;100.00
58937;BME280;44718;52.346;4.970;2023-02-28T20:33:25;61310.41;;;-146.50;100.00
58937;BME280;44718;52.346;4.970;2023-02-28T20:35:57;61316.59;;;-146.50;100.00
58937;BME280;44718;52.346;4.970;2023-02-28T20:38:22;61320.72;;;-146.50;100.00
58937;BME280;44718;52.346;4.970;2023-02-28T20:40:54;61275.31;;;-146.50;100.00
58937;BME280;44718;52.346;4.970;2023-02-28T20:43:20;61279.44;;;-146.50;100.00
58937;BME280;44718;52.346;4.970;2023-02-28T20:45:57;61324.84;;;-146.50;100.00
58937;BME280;44718;52.346;4.970;2023-02-28T20:48:26;61345.47;;;-146.50;100.00
58937;BME280;44718;52.346;4.970;2023-02-28T20:50:52;61353.72;;;-146.50;100.00
58937;BME280;44718;52.346;4.970;2023-02-28T20:53:19;61318.66;;;-146.50;100.00
58937;BME280;44718;52.346;4.970;2023-02-28T20:55:54;61333.09;;;-146.50;100.00
58937;BME280;44718;52.346;4.970;2023-02-28T20:58:19;61372.28;;;-146.50;100.00
58937;BME280;44718;52.346;4.970;2023-02-28T21:00:45;61339.28;;;-146.50;100.00
58937;BME280;44718;52.346;4.970;2023-02-28T21:03:13;61335.16;;;-146.50;100.00
58937;BME280;44718;52.346;4.970;2023-02-28T21:05:39;61355.78;;;-146.50;100.00
58937;BME280;44718;52.346;4.970;2023-02-28T21:08:04;61318.66;;;-146.50;100.00
58937;BME280;44718;52.346;4.970;2023-02-28T21:10:29;61331.03;;;-146.50;100.00
58937;BME280;44718;52.346;4.970;2023-02-28T21:12:55;61361.97;;;-146.50;100.00
58937;BME280;44718;52.346;4.970;2023-02-28T21:15:22;61370.22;;;-146.50;100.00
58937;BME280;44718;52.346;4.970;2023-02-28T21:17:48;61322.78;;;-146.50;100.00
58937;BME280;44718;52.346;4.970;2023-02-28T21:20:13;61337.22;;;-146.50;100.00
58937;BME280;44718;52.346;4.970;2023-02-28T21:22:49;61384.66;;;-146.50;100.00
58937;BME280;44718;52.346;4.970;2023-02-28T21:25:15;61374.34;;;-146.50;100.00
58937;BME280;44718;52.346;4.970;2023-02-28T21:27:40;61386.72;;;-146.50;100.00
58937;BME280;44718;52.346;4.970;2023-02-28T21:30:07;61341.34;;;-146.50;100.00
58937;BME280;44718;52.346;4.970;2023-02-28T21:32:33;61349.59;;;-146.50;100.00
58937;BME280;44718;52.346;4.970;2023-02-28T21:34:58;61339.28;;;-146.50;100.00
58937;BME280;44718;52.346;4.970;2023-02-28T21:37:24;61382.59;;;-146.50;100.00
58937;BME280;44718;52.346;4.970;2023-02-28T21:39:49;61386.72;;;-146.50;100.00
58937;BME280;44718;52.346;4.970;2023-02-28T21:42:15;61411.50;;;-146.50;100.00
58937;BME280;44718;52.346;4.970;2023-02-28T21:44:41;61421.81;;;-146.50;100.00
58937;BME280;44718;52.346;4.970;2023-02-28T21:47:06;61395.00;;;-146.50;100.00
58937;BME280;44718;52.346;4.970;2023-02-28T21:49:31;61448.63;;;-146.50;100.00
58937;BME280;44718;52.346;4.970;2023-02-28T21:51:57;61471.31;;;-146.50;100.00
58937;BME280;44718;52.346;4.970;2023-02-28T21:54:22;61465.13;;;-146.50;100.00
58937;BME280;44718;52.346;4.970;2023-02-28T21:56:48;61477.50;;;-146.50;100.00
58937;BME280;44718;52.346;4.970;2023-02-28T21:59:16;61485.78;;;-146.50;100.00
58937;BME280;44718;52.346;4.970;2023-02-28T22:01:43;61419.75;;;-146.50;100.00
58937;BME280;44718;52.346;4.970;2023-02-28T22:04:12;61407.38;;;-146.50;100.00
58937;BME280;44718;52.346;4.970;2023-02-28T22:06:49;61419.75;;;-146.50;100.00
58937;BME280;44718;52.346;4.970;2023-02-28T22:09:14;61399.13;;;-146.50;100.00
58937;BME280;44718;52.346;4.970;2023-02-28T22:11:40;61442.44;;;-146.50;100.00
58937;BME280;44718;52.346;4.970;2023-02-28T22:14:06;61434.19;;;-146.50;100.00
58937;BME280;44718;52.346;4.970;2023-02-28T22:16:33;61448.63;;;-146.50;100.00
58937;BME280;44718;52.346;4.970;2023-02-28T22:19:04;61481.66;;;-146.50;100.00
58937;BME280;44718;52.346;4.970;2023-02-28T22:21:31;61471.31;;;-146.50;100.00
58937;BME280;44718;52.346;4.970;2023-02-28T22:23:57;61518.78;;;-146.50;100.00
58937;BME280;44718;52.346;4.970;2023-02-28T22:26:22;61543.53;;;-146.50;100.00
58937;BME280;44718;52.346;4.970;2023-02-28T22:28:48;61494.03;;;-146.50;100.00
58937;BME280;44718;52.346;4.970;2023-02-28T22:31:25;61522.91;;;-146.50;100.00
58937;BME280;44718;52.346;4.970;2023-02-28T22:33:54;61456.88;;;-146.50;100.00
58937;BME280;44718;52.346;4.970;2023-02-28T22:36:20;61440.38;;;-146.50;100.00
58937;BME280;44718;52.346;4.970;2023-02-28T22:38:46;61456.88;;;-146.50;100.00
58937;BME280;44718;52.346;4.970;2023-02-28T22:41:13;61471.31;;;-146.50;100.00
58937;BME280;44718;52.346;4.970;2023-02-28T22:43:39;61446.56;;;-146.50;100.00
58937;BME280;44718;52.346;4.970;2023-02-28T22:46:07;61454.81;;;-146.50;100.00
58937;BME280;44718;52.346;4.970;2023-02-28T22:48:34;61417.69;;;-146.50;100.00
58937;BME280;44718;52.346;4.970;2023-02-28T22:51:05;61463.06;;;-146.50;100.00
58937;BME280;44718;52.346;4.970;2023-02-28T22:53:34;61469.25;;;-146.50;100.00
58937;BME280;44718;52.346;4.970;2023-02-28T22:56:00;61440.38;;;-146.50;100.00
58937;BME280;44718;52.346;4.970;2023-02-28T22:58:26;61512.59;;;-146.50;100.00
58937;BME280;44718;52.346;4.970;2023-02-28T23:00:51;61487.84;;;-146.50;100.00
58937;BME280;44718;52.346;4.970;2023-02-28T23:03:24;61510.53;;;-146.50;100.00
58937;BME280;44718;52.346;4.970;2023-02-28T23:05:50;61506.41;;;-146.50;100.00
58937;BME280;44718;52.346;4.970;2023-02-28T23:08:16;61551.78;;;-146.50;100.00
58937;BME280;44718;52.346;4.970;2023-02-28T23:10:47;61504.34;;;-146.50;100.00
58937;BME280;44718;52.346;4.970;2023-02-28T23:13:13;61477.50;;;-146.50;100.00
58937;BME280;44718;52.346;4.970;2023-02-28T23:15:39;61547.66;;;-146.50;100.00
58937;BME280;44718;52.346;4.970;2023-02-28T23:18:06;61570.38;;;-146.50;100.00
58937;BME280;44718;52.346;4.970;2023-02-28T23:20:31;61599.25;;;-146.50;100.00
58937;BME280;44718;52.346;4.970;2023-02-28T23:22:57;61609.56;;;-146.50;100.00
58937;BME280;44718;52.346;4.970;2023-02-28T23:25:22;61613.69;;;-146.50;100.00
58937;BME280;44718;52.346;4.970;2023-02-28T23:27:48;61619.88;;;-146.50;100.00
58937;BME280;44718;52.346;4.970;2023-02-28T23:30:13;61671.47;;;-146.50;100.00
58937;BME280;44718;52.346;4.970;2023-02-28T23:32:39;61675.59;;;-146.50;100.00
58937;BME280;44718;52.346;4.970;2023-02-28T23:35:06;61751.94;;;-146.50;100.00
58937;BME280;44718;52.346;4.970;2023-02-28T23:37:33;61756.06;;;-146.50;100.00
58937;BME280;44718;52.346;4.970;2023-02-28T23:39:58;61758.13;;;-146.50;100.00
58937;BME280;44718;52.346;4.970;2023-02-28T23:42:24;61764.31;;;-146.50;100.00
58937;BME280;44718;52.346;4.970;2023-02-28T23:44:49;61756.06;;;-146.50;100.00
58937;BME280;44718;52.346;4.970;2023-02-28T23:47:14;61820.03;;;-146.50;100.00
58937;BME280;44718;52.346;4.970;2023-02-28T23:49:41;61867.50;;;-146.50;100.00
58937;BME280;44718;52.346;4.970;2023-02-28T23:52:06;61820.03;;;-146.50;100.00
58937;BME280;44718;52.346;4.970;2023-02-28T23:54:32;61865.44;;;-146.50;100.00
58937;BME280;44718;52.346;4.970;2023-02-28T23:56:57;61787.00;;;-146.50;100.00
58937;BME280;44718;52.346;4.970;2023-02-28T23:59:23;61766.38;;;-146.50;100.00
